sensor_id;sensor_type;location;lat;lon;timestamp;P1;durP1;ratioP1;P2;durP2;ratioP2
16393;SDS011;8306;51.128;4.476;2023-02-15T00:00:20;64.43;;;38.27;;
16393;SDS011;8306;51.128;4.476;2023-02-15T00:02:46;65.00;;;38.03;;
16393;SDS011;8306;51.128;4.476;2023-02-15T00:05:12;55.37;;;35.97;;
16393;SDS011;8306;51.128;4.476;2023-02-15T00:07:39;55.60;;;36.13;;
16393;SDS011;8306;51.128;4.476;2023-02-15T00:10:06;67.67;;;39.37;;
16393;SDS011;8306;51.128;4.476;2023-02-15T00:12:32;69.50;;;39.03;;
16393;SDS011;8306;51.128;4.476;2023-02-15T00:14:59;79.33;;;44.80;;
16393;SDS011;8306;51.128;4.476;2023-02-15T00:17:28;78.47;;;42.07;;
16393;SDS011;8306;51.128;4.476;2023-02-15T00:19:54;87.40;;;46.10;;
16393;SDS011;8306;51.128;4.476;2023-02-15T00:22:21;89.93;;;45.47;;
16393;SDS011;8306;51.128;4.476;2023-02-15T00:24:47;85.97;;;46.47;;
16393;SDS011;8306;51.128;4.476;2023-02-15T00:27:14;72.27;;;41.37;;
16393;SDS011;8306;51.128;4.476;2023-02-15T00:29:40;71.27;;;40.07;;
16393;SDS011;8306;51.128;4.476;2023-02-15T00:32:07;72.23;;;40.77;;
16393;SDS011;8306;51.128;4.476;2023-02-15T00:34:33;94.10;;;50.10;;
16393;SDS011;8306;51.128;4.476;2023-02-15T00:37:00;93.77;;;49.27;;
16393;SDS011;8306;51.128;4.476;2023-02-15T00:39:26;76.33;;;41.07;;
16393;SDS011;8306;51.128;4.476;2023-02-15T00:41:53;87.47;;;45.97;;
16393;SDS011;8306;51.128;4.476;2023-02-15T00:44:19;72.90;;;40.27;;
16393;SDS011;8306;51.128;4.476;2023-02-15T00:46:46;65.70;;;39.07;;
16393;SDS011;8306;51.128;4.476;2023-02-15T00:49:12;76.97;;;42.60;;
16393;SDS011;8306;51.128;4.476;2023-02-15T00:51:39;80.93;;;45.33;;
16393;SDS011;8306;51.128;4.476;2023-02-15T00:54:06;79.60;;;45.00;;
16393;SDS011;8306;51.128;4.476;2023-02-15T00:56:32;73.60;;;43.10;;
16393;SDS011;8306;51.128;4.476;2023-02-15T00:58:59;61.10;;;38.07;;
16393;SDS011;8306;51.128;4.476;2023-02-15T01:01:25;80.17;;;46.57;;
16393;SDS011;8306;51.128;4.476;2023-02-15T01:03:52;65.80;;;40.53;;
16393;SDS011;8306;51.128;4.476;2023-02-15T01:06:18;79.30;;;43.50;;
16393;SDS011;8306;51.128;4.476;2023-02-15T01:08:45;72.63;;;40.70;;
16393;SDS011;8306;51.128;4.476;2023-02-15T01:11:12;66.63;;;39.07;;
16393;SDS011;8306;51.128;4.476;2023-02-15T01:13:40;73.50;;;40.43;;
16393;SDS011;8306;51.128;4.476;2023-02-15T01:16:07;71.37;;;41.43;;
16393;SDS011;8306;51.128;4.476;2023-02-15T01:18:34;66.30;;;39.13;;
16393;SDS011;8306;51.128;4.476;2023-02-15T01:21:00;64.53;;;39.33;;
16393;SDS011;8306;51.128;4.476;2023-02-15T01:23:26;79.63;;;44.47;;
16393;SDS011;8306;51.128;4.476;2023-02-15T01:25:53;69.20;;;41.33;;
16393;SDS011;8306;51.128;4.476;2023-02-15T01:28:19;80.90;;;43.07;;
16393;SDS011;8306;51.128;4.476;2023-02-15T01:30:46;85.27;;;45.37;;
16393;SDS011;8306;51.128;4.476;2023-02-15T01:33:12;88.90;;;47.80;;
16393;SDS011;8306;51.128;4.476;2023-02-15T01:35:39;80.37;;;45.60;;
16393;SDS011;8306;51.128;4.476;2023-02-15T01:38:05;66.07;;;40.60;;
16393;SDS011;8306;51.128;4.476;2023-02-15T01:40:32;86.77;;;48.37;;
16393;SDS011;8306;51.128;4.476;2023-02-15T01:42:58;80.50;;;44.00;;
16393;SDS011;8306;51.128;4.476;2023-02-15T01:45:26;74.37;;;42.17;;
16393;SDS011;8306;51.128;4.476;2023-02-15T01:48:01;67.23;;;38.57;;
16393;SDS011;8306;51.128;4.476;2023-02-15T01:52:57;67.63;;;37.57;;
16393;SDS011;8306;51.128;4.476;2023-02-15T01:55:25;59.73;;;34.80;;
16393;SDS011;8306;51.128;4.476;2023-02-15T01:57:51;57.10;;;35.80;;
16393;SDS011;8306;51.128;4.476;2023-02-15T02:00:17;62.33;;;36.20;;
16393;SDS011;8306;51.128;4.476;2023-02-15T02:02:44;58.83;;;36.50;;
16393;SDS011;8306;51.128;4.476;2023-02-15T02:05:10;57.03;;;35.07;;
16393;SDS011;8306;51.128;4.476;2023-02-15T02:07:37;70.87;;;40.77;;
16393;SDS011;8306;51.128;4.476;2023-02-15T02:10:05;57.60;;;35.77;;
16393;SDS011;8306;51.128;4.476;2023-02-15T02:12:30;54.83;;;35.07;;
16393;SDS011;8306;51.128;4.476;2023-02-15T02:14:56;69.03;;;37.77;;
16393;SDS011;8306;51.128;4.476;2023-02-15T02:18:25;70.47;;;40.57;;
16393;SDS011;8306;51.128;4.476;2023-02-15T02:25:44;58.90;;;35.77;;
16393;SDS011;8306;51.128;4.476;2023-02-15T02:36:40;79.03;;;44.40;;
16393;SDS011;8306;51.128;4.476;2023-02-15T02:41:58;65.53;;;37.70;;
16393;SDS011;8306;51.128;4.476;2023-02-15T02:44:23;62.77;;;35.47;;
16393;SDS011;8306;51.128;4.476;2023-02-15T02:46:52;58.07;;;36.13;;
16393;SDS011;8306;51.128;4.476;2023-02-15T02:49:40;57.83;;;35.27;;
16393;SDS011;8306;51.128;4.476;2023-02-15T02:52:00;62.00;;;36.10;;
16393;SDS011;8306;51.128;4.476;2023-02-15T02:54:26;56.97;;;34.70;;
16393;SDS011;8306;51.128;4.476;2023-02-15T02:56:52;60.70;;;35.40;;
16393;SDS011;8306;51.128;4.476;2023-02-15T02:59:20;59.37;;;35.90;;
16393;SDS011;8306;51.128;4.476;2023-02-15T03:02:11;59.63;;;35.73;;
16393;SDS011;8306;51.128;4.476;2023-02-15T03:04:43;57.83;;;34.90;;
16393;SDS011;8306;51.128;4.476;2023-02-15T03:07:09;55.33;;;33.60;;
16393;SDS011;8306;51.128;4.476;2023-02-15T03:12:09;55.27;;;33.80;;
16393;SDS011;8306;51.128;4.476;2023-02-15T03:14:35;61.40;;;35.43;;
16393;SDS011;8306;51.128;4.476;2023-02-15T03:17:01;59.40;;;36.23;;
16393;SDS011;8306;51.128;4.476;2023-02-15T03:19:29;73.77;;;40.00;;
16393;SDS011;8306;51.128;4.476;2023-02-15T03:21:56;57.33;;;36.00;;
16393;SDS011;8306;51.128;4.476;2023-02-15T03:24:25;61.13;;;34.93;;
16393;SDS011;8306;51.128;4.476;2023-02-15T03:26:53;66.77;;;37.13;;
16393;SDS011;8306;51.128;4.476;2023-02-15T03:29:21;62.47;;;35.90;;
16393;SDS011;8306;51.128;4.476;2023-02-15T03:31:47;63.27;;;35.23;;
16393;SDS011;8306;51.128;4.476;2023-02-15T03:34:13;80.87;;;42.23;;
16393;SDS011;8306;51.128;4.476;2023-02-15T03:37:00;63.73;;;36.30;;
16393;SDS011;8306;51.128;4.476;2023-02-15T03:39:38;74.50;;;38.37;;
16393;SDS011;8306;51.128;4.476;2023-02-15T03:42:19;73.73;;;38.33;;
16393;SDS011;8306;51.128;4.476;2023-02-15T03:45:05;65.20;;;35.60;;
16393;SDS011;8306;51.128;4.476;2023-02-15T03:47:38;60.00;;;35.23;;
16393;SDS011;8306;51.128;4.476;2023-02-15T03:50:01;56.77;;;32.97;;
16393;SDS011;8306;51.128;4.476;2023-02-15T03:53:03;65.07;;;37.00;;
16393;SDS011;8306;51.128;4.476;2023-02-15T03:55:29;74.33;;;38.80;;
16393;SDS011;8306;51.128;4.476;2023-02-15T03:57:55;59.40;;;33.77;;
16393;SDS011;8306;51.128;4.476;2023-02-15T04:00:40;68.93;;;34.40;;
16393;SDS011;8306;51.128;4.476;2023-02-15T04:03:40;66.37;;;36.17;;
16393;SDS011;8306;51.128;4.476;2023-02-15T04:06:06;69.20;;;36.70;;
16393;SDS011;8306;51.128;4.476;2023-02-15T04:08:32;70.07;;;38.20;;
16393;SDS011;8306;51.128;4.476;2023-02-15T04:11:17;57.00;;;33.60;;
16393;SDS011;8306;51.128;4.476;2023-02-15T04:13:43;61.77;;;34.53;;
16393;SDS011;8306;51.128;4.476;2023-02-15T04:16:10;63.93;;;34.80;;
16393;SDS011;8306;51.128;4.476;2023-02-15T04:21:21;51.27;;;31.83;;
16393;SDS011;8306;51.128;4.476;2023-02-15T04:24:05;52.97;;;32.83;;
16393;SDS011;8306;51.128;4.476;2023-02-15T04:26:50;65.97;;;34.57;;
16393;SDS011;8306;51.128;4.476;2023-02-15T04:29:16;60.73;;;34.50;;
16393;SDS011;8306;51.128;4.476;2023-02-15T04:31:43;55.50;;;32.83;;
16393;SDS011;8306;51.128;4.476;2023-02-15T04:34:09;60.27;;;32.57;;
16393;SDS011;8306;51.128;4.476;2023-02-15T04:36:36;54.63;;;32.43;;
16393;SDS011;8306;51.128;4.476;2023-02-15T04:39:02;57.17;;;33.70;;
16393;SDS011;8306;51.128;4.476;2023-02-15T04:41:29;61.23;;;34.47;;
16393;SDS011;8306;51.128;4.476;2023-02-15T04:43:55;55.50;;;31.97;;
16393;SDS011;8306;51.128;4.476;2023-02-15T04:46:22;63.93;;;34.80;;
16393;SDS011;8306;51.128;4.476;2023-02-15T04:48:48;60.13;;;33.70;;
16393;SDS011;8306;51.128;4.476;2023-02-15T04:51:15;52.30;;;32.17;;
16393;SDS011;8306;51.128;4.476;2023-02-15T04:53:41;59.33;;;33.77;;
16393;SDS011;8306;51.128;4.476;2023-02-15T04:56:07;61.93;;;34.33;;
16393;SDS011;8306;51.128;4.476;2023-02-15T04:58:34;58.53;;;32.20;;
16393;SDS011;8306;51.128;4.476;2023-02-15T05:01:00;62.43;;;35.50;;
16393;SDS011;8306;51.128;4.476;2023-02-15T05:03:27;64.70;;;37.07;;
16393;SDS011;8306;51.128;4.476;2023-02-15T05:05:53;71.57;;;37.73;;
16393;SDS011;8306;51.128;4.476;2023-02-15T05:08:20;64.97;;;34.50;;
16393;SDS011;8306;51.128;4.476;2023-02-15T05:10:49;64.87;;;33.10;;
16393;SDS011;8306;51.128;4.476;2023-02-15T05:13:16;66.00;;;35.77;;
16393;SDS011;8306;51.128;4.476;2023-02-15T05:15:46;73.00;;;40.50;;
16393;SDS011;8306;51.128;4.476;2023-02-15T05:18:08;58.60;;;34.43;;
16393;SDS011;8306;51.128;4.476;2023-02-15T05:20:35;64.80;;;34.57;;
16393;SDS011;8306;51.128;4.476;2023-02-15T05:23:01;66.60;;;35.93;;
16393;SDS011;8306;51.128;4.476;2023-02-15T05:25:28;61.40;;;35.23;;
16393;SDS011;8306;51.128;4.476;2023-02-15T05:28:12;59.80;;;35.07;;
16393;SDS011;8306;51.128;4.476;2023-02-15T05:30:45;63.37;;;35.53;;
16393;SDS011;8306;51.128;4.476;2023-02-15T05:33:14;60.27;;;34.93;;
16393;SDS011;8306;51.128;4.476;2023-02-15T05:35:41;64.73;;;34.23;;
16393;SDS011;8306;51.128;4.476;2023-02-15T05:38:07;61.90;;;32.50;;
16393;SDS011;8306;51.128;4.476;2023-02-15T05:40:34;65.20;;;37.13;;
16393;SDS011;8306;51.128;4.476;2023-02-15T05:43:00;111.50;;;39.10;;
16393;SDS011;8306;51.128;4.476;2023-02-15T05:45:27;66.07;;;35.23;;
16393;SDS011;8306;51.128;4.476;2023-02-15T05:47:53;51.83;;;30.87;;
16393;SDS011;8306;51.128;4.476;2023-02-15T05:50:20;46.03;;;30.40;;
16393;SDS011;8306;51.128;4.476;2023-02-15T05:52:46;71.13;;;37.73;;
16393;SDS011;8306;51.128;4.476;2023-02-15T05:55:12;69.60;;;35.40;;
16393;SDS011;8306;51.128;4.476;2023-02-15T05:57:39;68.63;;;36.37;;
16393;SDS011;8306;51.128;4.476;2023-02-15T06:00:06;52.83;;;31.90;;
16393;SDS011;8306;51.128;4.476;2023-02-15T06:02:35;65.13;;;34.73;;
16393;SDS011;8306;51.128;4.476;2023-02-15T06:05:02;89.00;;;42.20;;
16393;SDS011;8306;51.128;4.476;2023-02-15T06:07:28;75.90;;;39.17;;
16393;SDS011;8306;51.128;4.476;2023-02-15T06:09:54;92.67;;;44.47;;
16393;SDS011;8306;51.128;4.476;2023-02-15T06:12:21;85.80;;;41.37;;
16393;SDS011;8306;51.128;4.476;2023-02-15T06:14:47;58.57;;;34.10;;
16393;SDS011;8306;51.128;4.476;2023-02-15T06:17:14;67.33;;;37.40;;
16393;SDS011;8306;51.128;4.476;2023-02-15T06:19:40;61.63;;;36.57;;
16393;SDS011;8306;51.128;4.476;2023-02-15T06:22:07;82.10;;;42.37;;
16393;SDS011;8306;51.128;4.476;2023-02-15T06:24:33;80.07;;;39.77;;
16393;SDS011;8306;51.128;4.476;2023-02-15T06:27:00;69.27;;;37.73;;
16393;SDS011;8306;51.128;4.476;2023-02-15T06:29:26;64.80;;;36.03;;
16393;SDS011;8306;51.128;4.476;2023-02-15T06:31:53;71.23;;;38.60;;
16393;SDS011;8306;51.128;4.476;2023-02-15T06:34:19;75.80;;;38.23;;
16393;SDS011;8306;51.128;4.476;2023-02-15T06:36:46;68.20;;;37.83;;
16393;SDS011;8306;51.128;4.476;2023-02-15T06:39:12;52.63;;;32.57;;
16393;SDS011;8306;51.128;4.476;2023-02-15T06:41:39;61.93;;;35.23;;
16393;SDS011;8306;51.128;4.476;2023-02-15T06:44:05;59.70;;;34.27;;
16393;SDS011;8306;51.128;4.476;2023-02-15T06:46:32;62.40;;;35.33;;
16393;SDS011;8306;51.128;4.476;2023-02-15T06:48:58;64.17;;;34.70;;
16393;SDS011;8306;51.128;4.476;2023-02-15T06:51:25;57.77;;;32.57;;
16393;SDS011;8306;51.128;4.476;2023-02-15T06:53:51;62.60;;;33.97;;
16393;SDS011;8306;51.128;4.476;2023-02-15T06:56:18;61.47;;;33.17;;
16393;SDS011;8306;51.128;4.476;2023-02-15T06:58:44;57.00;;;33.47;;
16393;SDS011;8306;51.128;4.476;2023-02-15T07:01:11;63.33;;;32.90;;
16393;SDS011;8306;51.128;4.476;2023-02-15T07:03:37;55.60;;;32.60;;
16393;SDS011;8306;51.128;4.476;2023-02-15T07:06:04;58.77;;;33.53;;
16393;SDS011;8306;51.128;4.476;2023-02-15T07:08:30;50.83;;;31.83;;
16393;SDS011;8306;51.128;4.476;2023-02-15T07:10:56;54.33;;;33.03;;
16393;SDS011;8306;51.128;4.476;2023-02-15T07:13:23;53.77;;;32.53;;
16393;SDS011;8306;51.128;4.476;2023-02-15T07:15:49;76.50;;;39.00;;
16393;SDS011;8306;51.128;4.476;2023-02-15T07:18:16;47.43;;;32.00;;
16393;SDS011;8306;51.128;4.476;2023-02-15T07:20:42;50.50;;;33.30;;
16393;SDS011;8306;51.128;4.476;2023-02-15T07:23:09;81.97;;;42.00;;
16393;SDS011;8306;51.128;4.476;2023-02-15T07:25:35;75.57;;;41.40;;
16393;SDS011;8306;51.128;4.476;2023-02-15T07:28:02;87.13;;;48.93;;
16393;SDS011;8306;51.128;4.476;2023-02-15T07:30:29;93.20;;;49.10;;
16393;SDS011;8306;51.128;4.476;2023-02-15T07:32:55;99.43;;;51.83;;
16393;SDS011;8306;51.128;4.476;2023-02-15T07:35:45;89.07;;;48.07;;
16393;SDS011;8306;51.128;4.476;2023-02-15T07:38:06;102.97;;;53.67;;
16393;SDS011;8306;51.128;4.476;2023-02-15T07:40:32;98.93;;;54.77;;
16393;SDS011;8306;51.128;4.476;2023-02-15T07:42:59;88.77;;;49.73;;
16393;SDS011;8306;51.128;4.476;2023-02-15T07:45:25;93.47;;;51.53;;
16393;SDS011;8306;51.128;4.476;2023-02-15T07:47:52;75.17;;;44.73;;
16393;SDS011;8306;51.128;4.476;2023-02-15T07:50:18;66.13;;;42.57;;
16393;SDS011;8306;51.128;4.476;2023-02-15T07:52:45;57.57;;;40.00;;
16393;SDS011;8306;51.128;4.476;2023-02-15T07:55:11;54.93;;;37.10;;
16393;SDS011;8306;51.128;4.476;2023-02-15T07:57:41;51.03;;;35.03;;
16393;SDS011;8306;51.128;4.476;2023-02-15T08:00:04;55.63;;;37.00;;
16393;SDS011;8306;51.128;4.476;2023-02-15T08:02:31;45.50;;;33.90;;
16393;SDS011;8306;51.128;4.476;2023-02-15T08:04:57;46.07;;;33.60;;
16393;SDS011;8306;51.128;4.476;2023-02-15T08:07:24;39.33;;;30.83;;
16393;SDS011;8306;51.128;4.476;2023-02-15T08:09:50;44.47;;;34.67;;
16393;SDS011;8306;51.128;4.476;2023-02-15T08:12:17;36.73;;;29.87;;
16393;SDS011;8306;51.128;4.476;2023-02-15T08:14:44;33.87;;;27.97;;
16393;SDS011;8306;51.128;4.476;2023-02-15T08:17:10;35.53;;;30.13;;
16393;SDS011;8306;51.128;4.476;2023-02-15T08:19:37;40.20;;;31.03;;
16393;SDS011;8306;51.128;4.476;2023-02-15T08:22:04;38.03;;;30.77;;
16393;SDS011;8306;51.128;4.476;2023-02-15T08:24:31;41.97;;;31.77;;
16393;SDS011;8306;51.128;4.476;2023-02-15T08:26:56;47.87;;;34.90;;
16393;SDS011;8306;51.128;4.476;2023-02-15T08:29:24;47.50;;;33.57;;
16393;SDS011;8306;51.128;4.476;2023-02-15T08:31:50;47.70;;;33.97;;
16393;SDS011;8306;51.128;4.476;2023-02-15T08:34:16;44.33;;;31.53;;
16393;SDS011;8306;51.128;4.476;2023-02-15T08:36:42;35.33;;;30.13;;
16393;SDS011;8306;51.128;4.476;2023-02-15T08:39:08;37.67;;;29.30;;
16393;SDS011;8306;51.128;4.476;2023-02-15T08:41:35;39.93;;;29.03;;
16393;SDS011;8306;51.128;4.476;2023-02-15T08:44:03;37.53;;;28.90;;
16393;SDS011;8306;51.128;4.476;2023-02-15T08:46:29;37.67;;;29.40;;
16393;SDS011;8306;51.128;4.476;2023-02-15T08:48:54;35.93;;;28.43;;
16393;SDS011;8306;51.128;4.476;2023-02-15T08:51:25;40.60;;;30.13;;
16393;SDS011;8306;51.128;4.476;2023-02-15T08:53:54;40.53;;;29.53;;
16393;SDS011;8306;51.128;4.476;2023-02-15T08:56:17;34.63;;;29.57;;
16393;SDS011;8306;51.128;4.476;2023-02-15T08:58:43;36.13;;;29.03;;
16393;SDS011;8306;51.128;4.476;2023-02-15T09:01:10;39.17;;;29.40;;
16393;SDS011;8306;51.128;4.476;2023-02-15T09:03:39;34.17;;;28.30;;
16393;SDS011;8306;51.128;4.476;2023-02-15T09:06:05;36.57;;;28.43;;
16393;SDS011;8306;51.128;4.476;2023-02-15T09:08:32;37.90;;;29.07;;
16393;SDS011;8306;51.128;4.476;2023-02-15T09:11:12;35.57;;;29.13;;
16393;SDS011;8306;51.128;4.476;2023-02-15T09:13:49;33.77;;;27.17;;
16393;SDS011;8306;51.128;4.476;2023-02-15T09:16:15;34.20;;;26.93;;
16393;SDS011;8306;51.128;4.476;2023-02-15T09:18:45;35.80;;;27.73;;
16393;SDS011;8306;51.128;4.476;2023-02-15T09:21:15;31.63;;;27.83;;
16393;SDS011;8306;51.128;4.476;2023-02-15T09:23:41;38.53;;;28.20;;
16393;SDS011;8306;51.128;4.476;2023-02-15T09:26:08;32.67;;;27.93;;
16393;SDS011;8306;51.128;4.476;2023-02-15T09:28:34;39.03;;;28.80;;
16393;SDS011;8306;51.128;4.476;2023-02-15T09:33:36;35.63;;;29.80;;
16393;SDS011;8306;51.128;4.476;2023-02-15T09:36:02;36.43;;;29.43;;
16393;SDS011;8306;51.128;4.476;2023-02-15T09:38:28;45.20;;;30.13;;
16393;SDS011;8306;51.128;4.476;2023-02-15T09:41:05;39.20;;;30.80;;
16393;SDS011;8306;51.128;4.476;2023-02-15T09:43:42;42.33;;;31.47;;
16393;SDS011;8306;51.128;4.476;2023-02-15T09:46:29;38.47;;;31.03;;
16393;SDS011;8306;51.128;4.476;2023-02-15T09:49:06;35.50;;;29.33;;
16393;SDS011;8306;51.128;4.476;2023-02-15T09:54:13;31.17;;;26.00;;
16393;SDS011;8306;51.128;4.476;2023-02-15T09:56:39;29.83;;;26.03;;
16393;SDS011;8306;51.128;4.476;2023-02-15T10:01:55;27.87;;;25.07;;
16393;SDS011;8306;51.128;4.476;2023-02-15T10:07:11;26.77;;;24.50;;
16393;SDS011;8306;51.128;4.476;2023-02-15T10:09:37;27.73;;;25.03;;
16393;SDS011;8306;51.128;4.476;2023-02-15T10:12:11;27.17;;;24.50;;
16393;SDS011;8306;51.128;4.476;2023-02-15T10:27:54;25.17;;;22.93;;
16393;SDS011;8306;51.128;4.476;2023-02-15T10:30:23;26.20;;;23.70;;
16393;SDS011;8306;51.128;4.476;2023-02-15T10:35:44;23.70;;;21.67;;
16393;SDS011;8306;51.128;4.476;2023-02-15T10:46:48;24.30;;;22.20;;
16393;SDS011;8306;51.128;4.476;2023-02-15T10:54:46;24.37;;;22.23;;
16393;SDS011;8306;51.128;4.476;2023-02-15T11:08:11;24.60;;;22.17;;
16393;SDS011;8306;51.128;4.476;2023-02-15T11:10:48;25.20;;;22.67;;
16393;SDS011;8306;51.128;4.476;2023-02-15T11:13:14;23.87;;;21.80;;
16393;SDS011;8306;51.128;4.476;2023-02-15T11:15:55;23.13;;;21.23;;
16393;SDS011;8306;51.128;4.476;2023-02-15T11:21:04;23.80;;;21.57;;
16393;SDS011;8306;51.128;4.476;2023-02-15T11:23:42;23.83;;;21.50;;
16393;SDS011;8306;51.128;4.476;2023-02-15T11:26:11;23.43;;;21.33;;
16393;SDS011;8306;51.128;4.476;2023-02-15T11:28:53;22.83;;;20.80;;
16393;SDS011;8306;51.128;4.476;2023-02-15T11:31:24;24.07;;;21.67;;
16393;SDS011;8306;51.128;4.476;2023-02-15T11:33:57;24.60;;;22.40;;
16393;SDS011;8306;51.128;4.476;2023-02-15T11:36:24;22.73;;;20.53;;
16393;SDS011;8306;51.128;4.476;2023-02-15T11:38:49;24.17;;;21.97;;
16393;SDS011;8306;51.128;4.476;2023-02-15T11:41:17;23.83;;;21.60;;
16393;SDS011;8306;51.128;4.476;2023-02-15T11:46:16;24.47;;;22.30;;
16393;SDS011;8306;51.128;4.476;2023-02-15T11:48:43;24.13;;;21.63;;
16393;SDS011;8306;51.128;4.476;2023-02-15T11:51:11;24.57;;;22.27;;
16393;SDS011;8306;51.128;4.476;2023-02-15T11:53:36;24.13;;;21.57;;
16393;SDS011;8306;51.128;4.476;2023-02-15T11:56:02;26.00;;;23.23;;
16393;SDS011;8306;51.128;4.476;2023-02-15T12:01:20;25.03;;;22.43;;
16393;SDS011;8306;51.128;4.476;2023-02-15T12:03:44;24.17;;;21.87;;
16393;SDS011;8306;51.128;4.476;2023-02-15T12:06:15;24.87;;;22.57;;
16393;SDS011;8306;51.128;4.476;2023-02-15T12:08:42;27.07;;;24.17;;
16393;SDS011;8306;51.128;4.476;2023-02-15T12:11:11;25.90;;;23.20;;
16393;SDS011;8306;51.128;4.476;2023-02-15T12:13:34;25.93;;;23.37;;
16393;SDS011;8306;51.128;4.476;2023-02-15T12:16:04;24.93;;;22.60;;
16393;SDS011;8306;51.128;4.476;2023-02-15T12:21:12;25.30;;;22.80;;
16393;SDS011;8306;51.128;4.476;2023-02-15T12:23:42;26.30;;;23.70;;
16393;SDS011;8306;51.128;4.476;2023-02-15T12:26:07;25.00;;;22.67;;
16393;SDS011;8306;51.128;4.476;2023-02-15T12:28:36;25.50;;;23.20;;
16393;SDS011;8306;51.128;4.476;2023-02-15T12:31:03;25.23;;;22.93;;
16393;SDS011;8306;51.128;4.476;2023-02-15T12:35:59;26.07;;;23.43;;
16393;SDS011;8306;51.128;4.476;2023-02-15T12:38:23;24.23;;;21.97;;
16393;SDS011;8306;51.128;4.476;2023-02-15T12:41:00;26.37;;;22.97;;
16393;SDS011;8306;51.128;4.476;2023-02-15T12:43:30;25.67;;;23.13;;
16393;SDS011;8306;51.128;4.476;2023-02-15T12:45:53;27.10;;;24.60;;
16393;SDS011;8306;51.128;4.476;2023-02-15T12:48:20;26.87;;;24.07;;
16393;SDS011;8306;51.128;4.476;2023-02-15T12:50:49;27.23;;;24.37;;
16393;SDS011;8306;51.128;4.476;2023-02-15T12:55:51;25.17;;;22.97;;
16393;SDS011;8306;51.128;4.476;2023-02-15T12:58:21;26.20;;;23.63;;
16393;SDS011;8306;51.128;4.476;2023-02-15T13:01:01;26.37;;;23.53;;
16393;SDS011;8306;51.128;4.476;2023-02-15T13:03:18;25.13;;;22.87;;
16393;SDS011;8306;51.128;4.476;2023-02-15T13:05:44;26.87;;;24.07;;
16393;SDS011;8306;51.128;4.476;2023-02-15T13:08:17;31.40;;;24.57;;
16393;SDS011;8306;51.128;4.476;2023-02-15T13:10:52;26.73;;;23.87;;
16393;SDS011;8306;51.128;4.476;2023-02-15T13:13:16;26.83;;;24.03;;
16393;SDS011;8306;51.128;4.476;2023-02-15T13:15:40;25.70;;;23.13;;
16393;SDS011;8306;51.128;4.476;2023-02-15T13:18:05;27.17;;;24.37;;
16393;SDS011;8306;51.128;4.476;2023-02-15T13:20:31;28.33;;;24.20;;
16393;SDS011;8306;51.128;4.476;2023-02-15T13:23:01;27.00;;;24.07;;
16393;SDS011;8306;51.128;4.476;2023-02-15T13:25:25;25.77;;;23.27;;
16393;SDS011;8306;51.128;4.476;2023-02-15T13:27:54;25.83;;;23.43;;
16393;SDS011;8306;51.128;4.476;2023-02-15T13:32:49;26.17;;;23.70;;
16393;SDS011;8306;51.128;4.476;2023-02-15T13:35:16;25.67;;;23.27;;
16393;SDS011;8306;51.128;4.476;2023-02-15T13:37:48;26.57;;;23.77;;
16393;SDS011;8306;51.128;4.476;2023-02-15T13:46:04;26.33;;;23.77;;
16393;SDS011;8306;51.128;4.476;2023-02-15T13:48:36;25.43;;;22.87;;
16393;SDS011;8306;51.128;4.476;2023-02-15T13:56:26;25.60;;;23.00;;
16393;SDS011;8306;51.128;4.476;2023-02-15T14:01:39;25.57;;;23.03;;
16393;SDS011;8306;51.128;4.476;2023-02-15T14:12:20;25.17;;;22.83;;
16393;SDS011;8306;51.128;4.476;2023-02-15T14:17:53;24.80;;;22.57;;
16393;SDS011;8306;51.128;4.476;2023-02-15T14:20:47;26.03;;;23.53;;
16393;SDS011;8306;51.128;4.476;2023-02-15T14:25:53;25.80;;;23.03;;
16393;SDS011;8306;51.128;4.476;2023-02-15T14:28:28;25.17;;;22.67;;
16393;SDS011;8306;51.128;4.476;2023-02-15T14:30:53;26.27;;;23.67;;
16393;SDS011;8306;51.128;4.476;2023-02-15T14:33:29;26.53;;;24.17;;
16393;SDS011;8306;51.128;4.476;2023-02-15T14:36:12;25.83;;;23.53;;
16393;SDS011;8306;51.128;4.476;2023-02-15T14:41:30;25.60;;;23.20;;
16393;SDS011;8306;51.128;4.476;2023-02-15T14:46:51;26.40;;;23.90;;
16393;SDS011;8306;51.128;4.476;2023-02-15T14:49:27;25.87;;;23.33;;
16393;SDS011;8306;51.128;4.476;2023-02-15T14:51:57;29.47;;;23.37;;
16393;SDS011;8306;51.128;4.476;2023-02-15T14:59:46;25.90;;;23.30;;
16393;SDS011;8306;51.128;4.476;2023-02-15T15:02:13;27.30;;;24.37;;
16393;SDS011;8306;51.128;4.476;2023-02-15T15:04:40;25.73;;;23.23;;
16393;SDS011;8306;51.128;4.476;2023-02-15T15:07:09;25.13;;;22.70;;
16393;SDS011;8306;51.128;4.476;2023-02-15T15:09:35;27.00;;;24.37;;
16393;SDS011;8306;51.128;4.476;2023-02-15T15:12:14;27.57;;;24.63;;
16393;SDS011;8306;51.128;4.476;2023-02-15T15:14:40;26.67;;;24.20;;
16393;SDS011;8306;51.128;4.476;2023-02-15T15:17:06;26.10;;;23.77;;
16393;SDS011;8306;51.128;4.476;2023-02-15T15:22:23;26.57;;;23.77;;
16393;SDS011;8306;51.128;4.476;2023-02-15T15:24:53;26.33;;;23.70;;
16393;SDS011;8306;51.128;4.476;2023-02-15T15:27:37;26.37;;;23.77;;
16393;SDS011;8306;51.128;4.476;2023-02-15T15:35:23;28.30;;;24.47;;
16393;SDS011;8306;51.128;4.476;2023-02-15T15:37:52;26.90;;;24.13;;
16393;SDS011;8306;51.128;4.476;2023-02-15T15:43:31;26.80;;;24.07;;
16393;SDS011;8306;51.128;4.476;2023-02-15T15:46:11;27.83;;;24.97;;
16393;SDS011;8306;51.128;4.476;2023-02-15T15:48:39;27.20;;;24.50;;
16393;SDS011;8306;51.128;4.476;2023-02-15T15:51:05;25.93;;;23.30;;
16393;SDS011;8306;51.128;4.476;2023-02-15T15:53:31;27.23;;;24.63;;
16393;SDS011;8306;51.128;4.476;2023-02-15T15:56:07;24.70;;;22.50;;
16393;SDS011;8306;51.128;4.476;2023-02-15T15:58:29;26.83;;;24.20;;
16393;SDS011;8306;51.128;4.476;2023-02-15T16:00:59;26.80;;;23.90;;
16393;SDS011;8306;51.128;4.476;2023-02-15T16:03:23;26.77;;;24.03;;
16393;SDS011;8306;51.128;4.476;2023-02-15T16:05:48;26.47;;;23.70;;
16393;SDS011;8306;51.128;4.476;2023-02-15T16:08:15;26.47;;;23.83;;
16393;SDS011;8306;51.128;4.476;2023-02-15T16:10:41;28.10;;;25.10;;
16393;SDS011;8306;51.128;4.476;2023-02-15T16:13:11;26.57;;;23.97;;
16393;SDS011;8306;51.128;4.476;2023-02-15T16:15:36;27.00;;;24.27;;
16393;SDS011;8306;51.128;4.476;2023-02-15T16:18:01;26.50;;;23.70;;
16393;SDS011;8306;51.128;4.476;2023-02-15T16:20:31;26.43;;;23.90;;
16393;SDS011;8306;51.128;4.476;2023-02-15T16:23:03;27.40;;;24.37;;
16393;SDS011;8306;51.128;4.476;2023-02-15T16:28:13;28.17;;;23.77;;
16393;SDS011;8306;51.128;4.476;2023-02-15T16:30:40;27.03;;;24.23;;
16393;SDS011;8306;51.128;4.476;2023-02-15T16:33:12;32.70;;;23.97;;
16393;SDS011;8306;51.128;4.476;2023-02-15T16:35:39;26.40;;;23.80;;
16393;SDS011;8306;51.128;4.476;2023-02-15T16:38:05;29.80;;;24.23;;
16393;SDS011;8306;51.128;4.476;2023-02-15T16:40:35;26.70;;;23.97;;
16393;SDS011;8306;51.128;4.476;2023-02-15T16:43:01;27.30;;;24.53;;
16393;SDS011;8306;51.128;4.476;2023-02-15T16:45:27;27.00;;;24.10;;
16393;SDS011;8306;51.128;4.476;2023-02-15T16:47:55;28.37;;;24.93;;
16393;SDS011;8306;51.128;4.476;2023-02-15T16:50:21;33.33;;;27.10;;
16393;SDS011;8306;51.128;4.476;2023-02-15T16:52:46;30.70;;;27.13;;
16393;SDS011;8306;51.128;4.476;2023-02-15T16:55:20;31.83;;;27.03;;
16393;SDS011;8306;51.128;4.476;2023-02-15T16:57:48;31.73;;;27.67;;
16393;SDS011;8306;51.128;4.476;2023-02-15T17:00:24;30.70;;;26.70;;
16393;SDS011;8306;51.128;4.476;2023-02-15T17:03:00;29.30;;;25.50;;
16393;SDS011;8306;51.128;4.476;2023-02-15T17:05:32;72.63;;;45.03;;
16393;SDS011;8306;51.128;4.476;2023-02-15T17:11:08;42.80;;;32.57;;